Appomattox, Virginia
Current Conditions -  °F | °C
As of 3:55 PM on Monday 22 Dec 2014 (Local Time) from K0V4 Reporting Station
Overcast Overcast  
Wind Chill: 31°   Ceiling: 500
Heat Index: 36°   Visibility: 2.5mi
Dew Point: 36°   Wind: 7mph
Humidity: 100%   Direction: 20°NNE
Pressure: 30.1"   Gusts: NA
Location:  37.36°N, 78.83°W
Report Text: K0V4 222055Z AUTO 02006KT 2 1/2SM OVC005 02/02 A3010 RMK AO1 T00230023
Loading
Personal Weather Stations






























Interactive Weather Map New forecast layout! Learn more

10-Day Weather Forecast

Advertisements
Track Severe Weather on mobile